createdAt,value
2023-03-27T00:01:12.959Z,4.35
2023-03-27T00:03:43.414Z,6.13
2023-03-27T00:06:12.011Z,6.27
2023-03-27T00:08:39.101Z,8.65
2023-03-27T00:11:08.867Z,9.40
2023-03-27T00:13:42.499Z,7.63
2023-03-27T00:16:17.786Z,10.38
2023-03-27T00:18:46.929Z,7.47
2023-03-27T00:21:14.240Z,5.82
2023-03-27T00:23:43.300Z,6.72
2023-03-27T00:26:12.106Z,9.23
2023-03-27T00:28:39.297Z,6.28
2023-03-27T00:31:09.688Z,8.07
2023-03-27T00:33:37.642Z,5.50
2023-03-27T00:36:12.615Z,6.55
2023-03-27T00:38:40.029Z,5.72
2023-03-27T00:41:07.661Z,5.35
2023-03-27T00:43:42.770Z,5.40
2023-03-27T00:46:21.708Z,5.63
2023-03-27T00:48:51.519Z,5.45
2023-03-27T00:51:22.290Z,8.65
2023-03-27T00:53:50.027Z,7.57
2023-03-27T00:56:18.153Z,4.80
2023-03-27T00:58:47.485Z,4.60
2023-03-27T01:01:15.297Z,4.70
2023-03-27T01:03:44.893Z,6.10
2023-03-27T01:06:14.131Z,4.15
2023-03-27T01:08:43.921Z,4.87
2023-03-27T01:11:20.409Z,5.32
2023-03-27T01:13:57.302Z,5.45
2023-03-27T01:16:26.820Z,5.22
2023-03-27T01:18:59.221Z,5.22
2023-03-27T01:21:41.531Z,3.83
2023-03-27T01:24:20.033Z,5.35
2023-03-27T01:27:00.200Z,5.20
2023-03-27T01:29:45.729Z,4.88
2023-03-27T01:32:36.392Z,4.15
2023-03-27T01:35:14.778Z,4.73
2023-03-27T01:37:55.541Z,3.85
2023-03-27T01:40:27.043Z,4.65
2023-03-27T01:43:00.139Z,4.82
2023-03-27T01:45:29.329Z,5.38
2023-03-27T01:48:00.758Z,4.70
2023-03-27T01:50:30.186Z,5.68
2023-03-27T01:53:01.345Z,4.03
2023-03-27T01:55:31.980Z,6.47
2023-03-27T01:58:00.881Z,3.90
2023-03-27T02:00:50.985Z,4.47
2023-03-27T02:03:18.149Z,4.60
2023-03-27T02:05:46.857Z,5.13
2023-03-27T02:08:18.509Z,6.30
2023-03-27T02:10:49.691Z,6.13
2023-03-27T02:13:19.149Z,5.80
2023-03-27T02:15:48.614Z,5.63
2023-03-27T02:18:19.287Z,5.30
2023-03-27T02:20:46.652Z,5.47
2023-03-27T02:23:14.064Z,4.05
2023-03-27T02:25:42.105Z,4.70
2023-03-27T02:28:36.062Z,5.60
2023-03-27T02:31:32.701Z,5.22
2023-03-27T02:34:06.973Z,6.55
2023-03-27T02:36:38.206Z,6.68
2023-03-27T02:39:12.785Z,6.10
2023-03-27T02:41:44.721Z,5.75
2023-03-27T02:44:13.903Z,5.20
2023-03-27T02:46:44.697Z,5.18
2023-03-27T02:49:16.005Z,5.53
2023-03-27T02:51:44.821Z,5.70
2023-03-27T02:54:14.570Z,6.40
2023-03-27T02:56:44.897Z,5.07
2023-03-27T02:59:14.336Z,5.35
2023-03-27T03:01:45.516Z,4.53
2023-03-27T03:04:16.754Z,6.80
2023-03-27T03:06:43.999Z,5.18
2023-03-27T03:09:11.594Z,4.60
2023-03-27T03:11:44.870Z,4.43
2023-03-27T03:14:12.069Z,5.25
2023-03-27T03:16:39.379Z,4.17
2023-03-27T03:19:07.994Z,6.90
2023-03-27T03:21:35.061Z,5.05
2023-03-27T03:24:02.075Z,4.90
2023-03-27T03:26:30.115Z,7.18
2023-03-27T03:29:00.112Z,7.53
2023-03-27T03:31:43.248Z,6.38
2023-03-27T03:34:13.420Z,6.50
2023-03-27T03:36:42.167Z,4.35
2023-03-27T03:39:15.588Z,4.18
2023-03-27T03:41:42.831Z,5.17
2023-03-27T03:44:10.528Z,5.60
2023-03-27T03:46:38.673Z,4.70
2023-03-27T03:49:06.176Z,5.47
2023-03-27T03:51:38.110Z,5.60
2023-03-27T03:54:09.469Z,6.17
2023-03-27T03:56:37.766Z,6.78
2023-03-27T03:59:04.904Z,6.13
2023-03-27T04:01:33.731Z,5.47
2023-03-27T04:04:00.897Z,3.65
2023-03-27T04:06:30.986Z,9.20
2023-03-27T04:09:01.394Z,9.48
2023-03-27T04:11:28.601Z,7.38
2023-03-27T04:13:56.708Z,7.57
2023-03-27T04:16:27.228Z,8.15
2023-03-27T04:18:55.666Z,7.93
2023-03-27T04:21:26.902Z,8.40
2023-03-27T04:23:54.596Z,7.80
2023-03-27T04:26:27.294Z,27.48
2023-03-27T04:28:54.466Z,22.23
2023-03-27T04:31:21.562Z,10.03
2023-03-27T04:33:52.321Z,10.13
2023-03-27T04:36:20.784Z,10.48
2023-03-27T04:38:50.123Z,8.48
2023-03-27T04:41:17.779Z,9.60
2023-03-27T04:43:46.364Z,9.63
2023-03-27T04:46:15.795Z,8.45
2023-03-27T04:48:42.852Z,8.23
2023-03-27T04:51:09.920Z,8.35
2023-03-27T04:53:39.021Z,13.20
2023-03-27T04:56:06.915Z,7.63
2023-03-27T04:58:36.674Z,8.23
2023-03-27T05:01:05.888Z,11.13
2023-03-27T05:03:35.043Z,9.48
2023-03-27T05:06:04.211Z,11.50
2023-03-27T05:08:31.846Z,11.37
2023-03-27T05:10:59.292Z,10.32
2023-03-27T05:13:26.486Z,8.90
2023-03-27T05:15:53.798Z,6.93
2023-03-27T05:18:23.177Z,5.40
2023-03-27T05:20:53.398Z,7.10
2023-03-27T05:23:21.515Z,6.13
2023-03-27T05:25:59.844Z,5.20
2023-03-27T05:28:29.060Z,6.95
2023-03-27T05:30:59.928Z,6.07
2023-03-27T05:33:28.614Z,6.10
2023-03-27T05:35:57.607Z,7.22
2023-03-27T05:38:26.593Z,5.97
2023-03-27T05:40:53.921Z,8.05
2023-03-27T05:43:21.521Z,5.75
2023-03-27T05:45:49.413Z,5.00
2023-03-27T05:48:16.572Z,6.45
2023-03-27T05:50:45.083Z,6.88
2023-03-27T05:53:12.433Z,6.22
2023-03-27T05:55:39.820Z,5.43
2023-03-27T05:58:09.853Z,6.40
2023-03-27T06:00:38.798Z,7.00
2023-03-27T06:03:07.638Z,5.05
2023-03-27T06:05:37.961Z,7.25
2023-03-27T06:08:08.011Z,6.47
2023-03-27T06:10:35.818Z,8.70
2023-03-27T06:13:05.243Z,5.03
2023-03-27T06:15:32.504Z,7.20
2023-03-27T06:18:06.787Z,6.93
2023-03-27T06:24:01.287Z,4.63
2023-03-27T06:26:28.790Z,6.43
2023-03-27T06:28:56.334Z,5.70
2023-03-27T06:31:36.548Z,6.30
2023-03-27T06:34:04.707Z,7.30
2023-03-27T06:36:33.333Z,5.80
2023-03-27T06:39:07.270Z,4.18
2023-03-27T06:41:35.168Z,4.40
2023-03-27T06:44:02.896Z,7.22
2023-03-27T06:46:42.833Z,4.30
2023-03-27T06:49:13.354Z,4.73
2023-03-27T06:51:42.267Z,4.43
2023-03-27T06:54:53.112Z,4.25
2023-03-27T07:01:50.218Z,3.70
2023-03-27T07:04:19.004Z,5.17
2023-03-27T07:06:49.147Z,4.78
2023-03-27T07:09:16.292Z,5.68
2023-03-27T07:11:43.330Z,3.33
2023-03-27T07:14:10.400Z,2.50
2023-03-27T07:16:37.577Z,4.57
2023-03-27T07:19:05.592Z,2.58
2023-03-27T07:21:34.074Z,4.40
2023-03-27T07:24:01.697Z,2.72
2023-03-27T07:26:29.659Z,3.72
2023-03-27T07:28:58.045Z,4.17
2023-03-27T07:31:39.508Z,3.67
2023-03-27T07:34:17.281Z,3.22
2023-03-27T07:36:45.737Z,3.78
2023-03-27T07:39:14.167Z,1.67
2023-03-27T07:41:41.728Z,2.97
2023-03-27T07:44:08.887Z,2.20
2023-03-27T07:46:36.288Z,3.00
2023-03-27T07:49:03.516Z,3.53
2023-03-27T07:51:30.841Z,2.45
2023-03-27T07:54:04.503Z,2.67
2023-03-27T07:56:38.014Z,1.85
2023-03-27T07:59:05.148Z,1.88
2023-03-27T08:01:37.188Z,3.25
2023-03-27T08:04:06.116Z,3.05
2023-03-27T08:06:33.433Z,5.10
2023-03-27T08:09:05.520Z,3.08
2023-03-27T08:11:32.610Z,4.35
2023-03-27T08:13:59.762Z,3.17
2023-03-27T08:16:51.741Z,2.78
2023-03-27T08:19:19.240Z,3.37
2023-03-27T08:21:49.634Z,2.67
2023-03-27T08:24:18.433Z,1.25
2023-03-27T08:26:46.051Z,3.17
2023-03-27T08:29:13.215Z,3.28
2023-03-27T08:31:40.327Z,1.60
2023-03-27T08:34:07.477Z,2.83
2023-03-27T08:36:36.633Z,2.45
2023-03-27T08:39:05.402Z,3.30
2023-03-27T08:41:47.751Z,2.55
2023-03-27T08:44:18.744Z,2.23
2023-03-27T08:46:50.489Z,2.13
2023-03-27T08:49:18.667Z,2.13
2023-03-27T08:55:37.480Z,1.75
2023-03-27T08:58:04.664Z,2.63
2023-03-27T09:00:35.855Z,3.65
2023-03-27T09:03:09.433Z,3.60
2023-03-27T09:05:41.033Z,3.15
2023-03-27T09:08:13.348Z,2.58
2023-03-27T09:10:43.295Z,3.13
2023-03-27T09:13:13.933Z,3.05
2023-03-27T09:15:57.844Z,3.53
2023-03-27T09:18:28.172Z,3.35
2023-03-27T09:20:57.328Z,1.85
2023-03-27T09:23:27.232Z,3.23
2023-03-27T09:25:56.916Z,2.38
2023-03-27T09:28:25.560Z,4.82
2023-03-27T09:30:54.634Z,2.72
2023-03-27T09:33:21.644Z,2.88
2023-03-27T09:35:48.737Z,4.67
2023-03-27T09:38:22.061Z,3.00
2023-03-27T09:40:51.804Z,4.15
2023-03-27T09:43:21.743Z,2.90
2023-03-27T09:45:52.477Z,2.25
2023-03-27T09:48:27.178Z,4.20
2023-03-27T09:50:58.674Z,3.60
2023-03-27T09:53:28.010Z,2.70
2023-03-27T09:55:56.803Z,2.80
2023-03-27T09:58:28.603Z,3.00
2023-03-27T10:01:09.554Z,4.23
2023-03-27T10:03:39.148Z,3.58
2023-03-27T10:06:07.105Z,3.20
2023-03-27T10:08:39.802Z,2.70
2023-03-27T10:11:08.355Z,2.83
2023-03-27T10:13:38.097Z,3.37
2023-03-27T10:16:06.213Z,3.30
2023-03-27T10:18:34.307Z,3.55
2023-03-27T10:21:07.694Z,3.80
2023-03-27T10:23:41.044Z,3.50
2023-03-27T10:26:09.706Z,3.23
2023-03-27T10:28:39.147Z,2.90
2023-03-27T10:31:12.389Z,3.13
2023-03-27T10:33:41.416Z,3.85
2023-03-27T10:36:26.015Z,4.10
2023-03-27T10:38:56.432Z,3.93
2023-03-27T10:41:28.603Z,3.10
2023-03-27T10:43:57.107Z,4.38
2023-03-27T10:46:26.441Z,5.05
2023-03-27T10:49:16.902Z,3.42
2023-03-27T10:51:49.662Z,3.50
2023-03-27T10:54:19.239Z,5.22
2023-03-27T10:56:57.233Z,4.22
2023-03-27T10:59:41.073Z,4.55
2023-03-27T11:02:26.407Z,3.28
2023-03-27T11:04:56.078Z,4.43
2023-03-27T11:07:27.333Z,4.35
2023-03-27T11:13:03.390Z,6.18
2023-03-27T11:15:33.329Z,4.03
2023-03-27T11:18:02.707Z,4.00
2023-03-27T11:20:32.809Z,2.63
2023-03-27T11:23:04.588Z,2.05
2023-03-27T11:25:44.037Z,2.95
2023-03-27T11:28:17.552Z,6.03
2023-03-27T11:30:48.493Z,2.43
2023-03-27T11:33:29.532Z,3.15
2023-03-27T11:36:01.272Z,2.30
2023-03-27T11:38:32.046Z,2.97
2023-03-27T11:41:00.211Z,3.33
2023-03-27T11:43:27.416Z,3.83
2023-03-27T11:46:00.179Z,3.03
2023-03-27T11:48:42.841Z,3.70
2023-03-27T11:51:15.991Z,3.78
2023-03-27T11:53:51.055Z,3.08
2023-03-27T11:56:29.574Z,7.00
2023-03-27T11:59:05.922Z,1.73
2023-03-27T12:01:35.504Z,1.95
2023-03-27T12:04:11.478Z,2.03
2023-03-27T12:06:41.656Z,2.88
2023-03-27T12:09:22.632Z,2.87
2023-03-27T12:11:54.159Z,1.95
2023-03-27T12:14:40.712Z,3.67
2023-03-27T12:17:24.673Z,3.22
2023-03-27T12:20:05.821Z,3.83
2023-03-27T12:22:41.948Z,3.87
2023-03-27T12:25:23.846Z,2.78
2023-03-27T12:28:03.158Z,3.60
2023-03-27T12:30:35.827Z,3.55
2023-03-27T12:33:11.051Z,3.15
2023-03-27T12:35:40.068Z,2.40
2023-03-27T12:38:11.700Z,8.05
2023-03-27T12:40:40.100Z,7.30
2023-03-27T12:43:11.872Z,4.50
2023-03-27T12:45:47.605Z,5.07
2023-03-27T12:48:20.676Z,3.20
2023-03-27T12:50:55.838Z,6.45
2023-03-27T12:53:37.828Z,7.40
2023-03-27T12:56:26.935Z,4.95
2023-03-27T12:58:55.827Z,5.40
2023-03-27T13:01:49.138Z,5.37
2023-03-27T13:04:28.853Z,4.85
2023-03-27T13:07:00.288Z,4.20
2023-03-27T13:09:43.229Z,4.72
2023-03-27T13:12:23.780Z,4.47
2023-03-27T13:15:12.959Z,5.80
2023-03-27T13:17:48.642Z,4.18
2023-03-27T13:20:23.683Z,4.47
2023-03-27T13:22:59.245Z,5.28
2023-03-27T13:25:40.875Z,6.43
2023-03-27T13:28:21.727Z,5.43
2023-03-27T13:30:49.921Z,8.20
2023-03-27T13:33:24.387Z,6.45
2023-03-27T13:35:59.368Z,6.65
2023-03-27T13:38:46.439Z,6.28
2023-03-27T13:41:32.767Z,5.77
2023-03-27T13:44:00.932Z,6.63
2023-03-27T13:46:30.126Z,6.40
2023-03-27T13:49:10.830Z,6.57
2023-03-27T13:51:58.721Z,7.57
2023-03-27T13:54:53.540Z,8.10
2023-03-27T13:57:50.644Z,6.05
2023-03-27T14:00:29.757Z,6.55
2023-03-27T14:03:17.828Z,7.50
2023-03-27T14:05:58.860Z,6.18
2023-03-27T14:08:34.647Z,5.75
2023-03-27T14:11:15.741Z,7.65
2023-03-27T14:13:55.183Z,6.00
2023-03-27T14:16:31.089Z,5.55
2023-03-27T14:19:07.897Z,5.45
2023-03-27T14:21:50.117Z,6.10
2023-03-27T14:24:22.538Z,6.20
2023-03-27T14:26:49.877Z,7.18
2023-03-27T14:29:17.051Z,5.95
2023-03-27T14:31:45.475Z,7.68
2023-03-27T14:34:17.264Z,7.17
2023-03-27T14:36:46.335Z,5.72
2023-03-27T14:39:16.551Z,5.70
2023-03-27T14:41:46.498Z,5.32
2023-03-27T14:44:13.616Z,7.28
2023-03-27T14:46:41.106Z,6.80
2023-03-27T14:49:12.868Z,8.18
2023-03-27T14:51:42.215Z,7.28
2023-03-27T14:54:13.997Z,7.80
2023-03-27T14:56:47.998Z,6.82
2023-03-27T14:59:18.665Z,5.97
2023-03-27T15:01:47.110Z,6.57
2023-03-27T15:04:15.546Z,7.18
2023-03-27T15:06:43.076Z,6.03
2023-03-27T15:09:13.567Z,5.88
2023-03-27T15:11:47.401Z,5.83
2023-03-27T15:14:19.009Z,6.57
2023-03-27T15:16:48.791Z,5.82
2023-03-27T15:19:19.415Z,5.22
2023-03-27T15:21:49.476Z,7.57
2023-03-27T15:24:19.111Z,5.33
2023-03-27T15:26:50.929Z,6.85
2023-03-27T15:29:23.424Z,6.13
2023-03-27T15:31:51.751Z,4.88
2023-03-27T15:34:23.359Z,6.32
2023-03-27T15:36:55.649Z,5.20
2023-03-27T15:39:23.505Z,6.80
2023-03-27T15:41:51.927Z,8.02
2023-03-27T15:44:22.650Z,5.43
2023-03-27T15:46:51.565Z,5.20
2023-03-27T15:49:20.026Z,6.83
2023-03-27T15:51:47.281Z,6.35
2023-03-27T15:54:25.335Z,5.80
2023-03-27T15:56:52.761Z,4.60
2023-03-27T15:59:52.643Z,5.20
2023-03-27T16:02:21.520Z,4.03
2023-03-27T16:04:55.734Z,6.40
2023-03-27T16:07:27.603Z,5.88
2023-03-27T16:09:56.661Z,7.30
2023-03-27T16:12:25.945Z,4.00
2023-03-27T16:15:00.517Z,5.17
2023-03-27T16:17:32.529Z,4.25
2023-03-27T16:20:02.002Z,6.65
2023-03-27T16:22:29.855Z,4.72
2023-03-27T16:24:57.596Z,4.75
2023-03-27T16:27:27.558Z,5.17
2023-03-27T16:29:59.745Z,6.93
2023-03-27T16:32:29.328Z,4.30
2023-03-27T16:34:56.683Z,3.97
2023-03-27T16:37:24.944Z,5.00
2023-03-27T16:39:55.024Z,3.83
2023-03-27T16:42:25.867Z,5.65
2023-03-27T16:44:53.817Z,4.13
2023-03-27T16:47:23.583Z,5.53
2023-03-27T16:50:08.082Z,5.22
2023-03-27T16:52:39.066Z,4.20
2023-03-27T16:55:07.770Z,5.20
2023-03-27T16:57:35.057Z,6.70
2023-03-27T17:00:06.863Z,3.22
2023-03-27T17:02:36.774Z,5.22
2023-03-27T17:05:04.350Z,4.00
2023-03-27T17:07:32.379Z,5.18
2023-03-27T17:09:59.993Z,4.45
2023-03-27T17:12:28.819Z,7.00
2023-03-27T17:14:56.138Z,5.47
2023-03-27T17:17:23.870Z,4.32
2023-03-27T17:19:56.276Z,4.78
2023-03-27T17:22:32.361Z,2.20
2023-03-27T17:25:02.458Z,3.42
2023-03-27T17:27:29.695Z,6.30
2023-03-27T17:29:58.797Z,3.10
2023-03-27T17:32:27.164Z,4.75
2023-03-27T17:34:54.262Z,5.93
2023-03-27T17:37:28.172Z,5.35
2023-03-27T17:39:56.092Z,5.57
2023-03-27T17:42:23.581Z,5.18
2023-03-27T17:44:50.869Z,8.18
2023-03-27T17:47:18.371Z,2.67
2023-03-27T17:49:48.200Z,4.60
2023-03-27T17:52:16.028Z,3.05
2023-03-27T17:54:45.546Z,4.50
2023-03-27T17:57:12.707Z,2.75
2023-03-27T17:59:40.500Z,2.70
2023-03-27T18:02:07.942Z,6.30
2023-03-27T18:04:35.504Z,3.97
2023-03-27T18:07:02.818Z,3.37
2023-03-27T18:09:30.541Z,4.75
2023-03-27T18:11:59.366Z,4.60
2023-03-27T18:14:27.288Z,3.95
2023-03-27T18:16:55.348Z,5.30
2023-03-27T18:19:24.537Z,6.82
2023-03-27T18:21:52.296Z,5.50
2023-03-27T18:24:19.723Z,6.88
2023-03-27T18:26:47.027Z,4.53
2023-03-27T18:29:15.812Z,3.97
2023-03-27T18:31:43.202Z,4.40
2023-03-27T18:34:12.307Z,4.88
2023-03-27T18:36:39.460Z,7.45
2023-03-27T18:39:07.000Z,4.68
2023-03-27T18:41:35.929Z,4.75
2023-03-27T18:44:03.319Z,3.95
2023-03-27T18:46:32.213Z,3.78
2023-03-27T18:49:03.326Z,2.97
2023-03-27T18:51:36.042Z,4.47
2023-03-27T18:54:03.430Z,6.20
2023-03-27T18:56:36.435Z,5.28
2023-03-27T18:59:03.959Z,5.25
2023-03-27T19:01:35.076Z,6.32
2023-03-27T19:04:04.073Z,5.22
2023-03-27T19:06:32.506Z,4.85
2023-03-27T19:09:00.224Z,5.28
2023-03-27T19:11:27.727Z,5.30
2023-03-27T19:13:55.784Z,6.10
2023-03-27T19:16:24.345Z,3.42
2023-03-27T19:18:53.808Z,4.22
2023-03-27T19:21:21.088Z,3.23
2023-03-27T19:23:48.828Z,4.95
2023-03-27T19:26:16.914Z,2.47
2023-03-27T19:28:47.637Z,4.55
2023-03-27T19:31:15.863Z,3.70
2023-03-27T19:33:44.073Z,4.13
2023-03-27T19:36:13.174Z,4.35
2023-03-27T19:38:40.529Z,6.07
2023-03-27T19:41:08.824Z,2.60
2023-03-27T19:43:36.170Z,4.05
2023-03-27T19:46:15.064Z,6.13
2023-03-27T19:48:43.989Z,2.97
2023-03-27T19:51:12.356Z,2.88
2023-03-27T19:53:42.186Z,3.42
2023-03-27T19:56:09.914Z,4.27
2023-03-27T19:58:37.243Z,3.67
2023-03-27T20:01:05.139Z,3.83
2023-03-27T20:03:33.390Z,6.38
2023-03-27T20:06:07.086Z,2.25
2023-03-27T20:08:38.266Z,2.40
2023-03-27T20:11:07.913Z,7.05
2023-03-27T20:13:42.477Z,4.10
2023-03-27T20:16:16.869Z,2.63
2023-03-27T20:18:44.001Z,3.58
2023-03-27T20:21:14.622Z,3.38
2023-03-27T20:23:43.372Z,2.50
2023-03-27T20:26:12.116Z,5.18
2023-03-27T20:28:39.630Z,4.25
2023-03-27T20:31:06.904Z,6.72
2023-03-27T20:33:33.979Z,4.70
2023-03-27T20:36:02.720Z,4.50
2023-03-27T20:38:33.176Z,3.47
2023-03-27T20:41:03.832Z,5.13
2023-03-27T20:43:35.108Z,3.30
2023-03-27T20:46:03.103Z,5.47
2023-03-27T20:48:40.647Z,2.67
2023-03-27T20:51:15.068Z,5.50
2023-03-27T20:53:42.789Z,2.45
2023-03-27T20:56:12.423Z,2.60
2023-03-27T20:58:42.344Z,3.97
2023-03-27T21:01:10.295Z,4.47
2023-03-27T21:03:38.863Z,4.97
2023-03-27T21:06:07.087Z,5.07
2023-03-27T21:08:34.812Z,3.58
2023-03-27T21:11:02.154Z,6.60
2023-03-27T21:13:29.640Z,6.27
2023-03-27T21:15:59.294Z,3.28
2023-03-27T21:18:29.499Z,4.20
2023-03-27T21:20:57.488Z,4.93
2023-03-27T21:23:24.482Z,2.88
2023-03-27T21:25:51.834Z,5.47
2023-03-27T21:28:19.131Z,6.43
2023-03-27T21:30:48.626Z,2.92
2023-03-27T21:33:18.176Z,5.82
2023-03-27T21:35:46.246Z,4.03
2023-03-27T21:38:16.139Z,3.50
2023-03-27T21:40:45.031Z,6.60
2023-03-27T21:43:13.206Z,3.33
2023-03-27T21:45:40.564Z,2.92
2023-03-27T21:48:07.800Z,4.10
2023-03-27T21:50:38.842Z,5.15
2023-03-27T21:53:06.835Z,4.60
2023-03-27T21:55:34.823Z,4.32
2023-03-27T21:58:02.157Z,2.40
2023-03-27T22:00:30.677Z,3.92
2023-03-27T22:02:57.845Z,3.65
2023-03-27T22:05:24.887Z,5.32
2023-03-27T22:07:53.382Z,3.78
2023-03-27T22:10:21.669Z,4.00
2023-03-27T22:12:49.577Z,4.28
2023-03-27T22:15:16.913Z,4.43
2023-03-27T22:17:44.104Z,4.30
2023-03-27T22:20:13.087Z,3.38
2023-03-27T22:22:42.389Z,4.55
2023-03-27T22:25:11.361Z,2.53
2023-03-27T22:27:39.632Z,2.83
2023-03-27T22:30:08.678Z,2.95
2023-03-27T22:32:36.441Z,3.38
2023-03-27T22:35:03.503Z,2.55
2023-03-27T22:37:30.711Z,3.20
2023-03-27T22:39:59.137Z,3.00
2023-03-27T22:42:30.764Z,2.42
2023-03-27T22:44:57.801Z,3.83
2023-03-27T22:47:25.474Z,2.53
2023-03-27T22:49:52.916Z,8.38
2023-03-27T22:52:19.999Z,2.17
2023-03-27T22:54:47.572Z,5.65
2023-03-27T22:57:14.782Z,3.80
2023-03-27T22:59:45.069Z,4.10
2023-03-27T23:02:12.579Z,5.38
2023-03-27T23:04:40.664Z,3.60
2023-03-27T23:07:07.831Z,3.42
2023-03-27T23:09:38.421Z,1.90
2023-03-27T23:12:05.620Z,3.17
2023-03-27T23:14:33.908Z,2.22
2023-03-27T23:17:03.380Z,2.90
2023-03-27T23:19:31.378Z,4.13
2023-03-27T23:21:58.636Z,4.63
2023-03-27T23:24:25.853Z,5.95
2023-03-27T23:26:53.057Z,4.25
2023-03-27T23:29:20.629Z,7.28
2023-03-27T23:31:47.988Z,3.97
2023-03-27T23:34:16.851Z,4.88
2023-03-27T23:36:43.956Z,2.67
2023-03-27T23:39:11.132Z,3.45
2023-03-27T23:41:38.392Z,3.03
2023-03-27T23:44:06.059Z,4.40
2023-03-27T23:46:34.279Z,4.78
2023-03-27T23:49:01.730Z,4.60
2023-03-27T23:51:30.291Z,3.75
2023-03-27T23:53:57.540Z,4.47
2023-03-27T23:56:24.653Z,3.78
2023-03-27T23:58:51.595Z,4.57
